Time;durP1;ratioP1;P1;durP2;ratioP2;P2;SDS_P1;SDS_P2;PMS_P1;PMS_P2;Temp;Humidity;BMP_temperature;BMP_pressure;BME280_temperature;BME280_humidity;BME280_pressure;Samples;Min_cycle;Max_cycle;Signal;HPM_P1;HPM_P2
2023/06/26 00:01:01;;;;;;;;;;;;;;;24.79;55.21;101115.38;4998034;28;1025;-73
2023/06/26 00:03:26;;;;;;;;;;;;;;;24.76;55.42;101115.78;5006000;28;1101;-76
2023/06/26 00:05:51;;;;;;;;;;;;;;;24.74;55.22;101109.91;5020485;28;1185;-73
2023/06/26 00:08:16;;;;;;;;;;;;;;;24.70;55.77;101103.38;5000865;28;1403;-73
2023/06/26 00:10:42;;;;;;;;;;;;;;;24.69;55.50;101104.41;5005076;28;1910;-73
2023/06/26 00:13:07;;;;;;;;;;;;;;;24.66;55.91;101107.50;5000250;28;1067;-73
2023/06/26 00:15:32;;;;;;;;;;;;;;;24.54;55.95;101109.16;5004188;28;1159;-73
2023/06/26 00:17:58;;;;;;;;;;;;;;;24.46;56.30;101112.06;4992164;28;1024;-73
2023/06/26 00:20:24;;;;;;;;;;;;;;;24.31;56.44;101118.38;4998914;28;1340;-73
2023/06/26 00:22:50;;;;;;;;;;;;;;;24.23;56.37;101110.66;4991391;28;1447;-72
2023/06/26 00:25:15;;;;;;;;;;;;;;;24.18;56.71;101110.47;5008694;28;1150;-73
2023/06/26 00:27:40;;;;;;;;;;;;;;;24.16;56.76;101107.22;5000409;28;1115;-73
2023/06/26 00:30:06;;;;;;;;;;;;;;;24.14;56.53;101108.44;5009999;28;1957;-73
2023/06/26 00:32:31;;;;;;;;;;;;;;;24.08;56.80;101104.78;5005453;28;1338;-73
2023/06/26 00:34:56;;;;;;;;;;;;;;;24.00;56.84;101107.66;5008180;28;1313;-73
2023/06/26 00:37:22;;;;;;;;;;;;;;;23.94;57.11;101103.19;5003348;28;1156;-73
2023/06/26 00:39:47;;;;;;;;;;;;;;;23.91;57.21;101093.00;5004116;28;1335;-73
2023/06/26 00:42:12;;;;;;;;;;;;;;;23.85;57.23;101095.44;5002958;28;1144;-73
2023/06/26 00:44:38;;;;;;;;;;;;;;;23.79;57.64;101095.44;5007786;28;1137;-73
2023/06/26 00:47:03;;;;;;;;;;;;;;;23.77;57.91;101097.50;5003141;28;1157;-72
2023/06/26 00:49:28;;;;;;;;;;;;;;;23.72;57.91;101100.75;5006985;28;1337;-73
2023/06/26 00:51:54;;;;;;;;;;;;;;;23.68;58.40;101096.88;4999296;28;1914;-73
2023/06/26 00:54:21;;;;;;;;;;;;;;;23.63;58.27;101090.56;5002636;28;1141;-72
2023/06/26 00:56:47;;;;;;;;;;;;;;;23.60;58.41;101091.78;5006926;28;1096;-73
2023/06/26 00:59:13;;;;;;;;;;;;;;;23.56;58.51;101101.13;5001062;28;1298;-73
2023/06/26 01:01:38;;;;;;;;;;;;;;;23.53;58.41;101096.25;5003438;28;1168;-73
2023/06/26 01:04:03;;;;;;;;;;;;;;;23.47;58.73;101095.25;5004395;28;1123;-73
2023/06/26 01:06:35;;;;;;;;;;;;;;;23.42;58.96;101104.81;5002170;28;1383;-73
2023/06/26 01:09:00;;;;;;;;;;;;;;;23.40;59.11;101096.25;4997076;28;1369;-74
2023/06/26 01:11:26;;;;;;;;;;;;;;;23.38;58.99;101099.09;4999633;28;1945;-73
2023/06/26 01:13:51;;;;;;;;;;;;;;;23.35;59.07;101104.00;5001941;28;1089;-73
2023/06/26 01:16:19;;;;;;;;;;;;;;;23.29;59.28;101117.03;5004706;28;1386;-73
2023/06/26 01:18:45;;;;;;;;;;;;;;;23.24;59.79;101122.09;4992821;28;1116;-73
2023/06/26 01:21:11;;;;;;;;;;;;;;;23.19;59.54;101119.25;5005282;28;1074;-73
2023/06/26 01:23:36;;;;;;;;;;;;;;;23.15;59.91;101114.53;5004519;28;1088;-72
2023/06/26 01:26:07;;;;;;;;;;;;;;;23.07;60.24;101112.09;4997893;28;1613;-73
2023/06/26 01:28:37;;;;;;;;;;;;;;;23.04;60.17;101118.59;5005449;28;1025;-72
2023/06/26 01:31:04;;;;;;;;;;;;;;;23.02;59.90;101125.91;4998252;28;1914;-74
2023/06/26 01:33:30;;;;;;;;;;;;;;;22.95;60.71;101127.75;4996522;28;1208;-73
2023/06/26 01:35:56;;;;;;;;;;;;;;;22.91;60.93;101129.16;4962869;28;1103857;-73
2023/06/26 01:38:25;;;;;;;;;;;;;;;22.84;61.59;101133.56;5003932;28;902;-73
2023/06/26 01:40:50;;;;;;;;;;;;;;;22.78;61.13;101138.63;4999420;28;1674;-73
2023/06/26 01:43:25;;;;;;;;;;;;;;;22.71;61.49;101132.50;5002160;28;1275;-74
2023/06/26 01:45:53;;;;;;;;;;;;;;;22.66;62.09;101134.94;5005765;28;1340;-73
2023/06/26 01:48:22;;;;;;;;;;;;;;;22.60;61.79;101146.28;5004841;28;1083;-74
2023/06/26 01:50:47;;;;;;;;;;;;;;;22.61;61.67;101150.56;5004863;28;1903;-73
2023/06/26 01:53:17;;;;;;;;;;;;;;;22.43;62.58;101158.19;5001408;28;948;-73
2023/06/26 01:55:47;;;;;;;;;;;;;;;22.36;62.44;101162.59;5001983;28;1569;-72
2023/06/26 01:58:14;;;;;;;;;;;;;;;22.33;62.56;101152.44;5006509;28;1141;-73
2023/06/26 02:00:39;;;;;;;;;;;;;;;22.26;62.97;101155.88;4990732;28;2038;-75
2023/06/26 02:03:05;;;;;;;;;;;;;;;22.14;64.10;101160.06;5000774;28;1252;-73
2023/06/26 02:05:31;;;;;;;;;;;;;;;22.08;64.02;101163.44;5001469;28;1118;-73
2023/06/26 02:07:56;;;;;;;;;;;;;;;22.05;63.47;101166.44;5003471;28;1101;-73
2023/06/26 02:10:22;;;;;;;;;;;;;;;22.04;63.94;101164.00;5003765;28;1963;-73
2023/06/26 02:12:47;;;;;;;;;;;;;;;22.01;64.86;101165.19;5004767;28;1280;-72
2023/06/26 02:15:12;;;;;;;;;;;;;;;21.94;64.03;101164.34;5000957;28;1315;-74
2023/06/26 02:17:37;;;;;;;;;;;;;;;21.93;64.08;101165.34;5000405;28;1262;-75
2023/06/26 02:20:03;;;;;;;;;;;;;;;21.87;64.85;101152.91;4994859;28;1577;-73
2023/06/26 02:22:28;;;;;;;;;;;;;;;21.85;64.51;101160.19;5004856;28;996;-73
2023/06/26 02:24:54;;;;;;;;;;;;;;;21.81;64.71;101158.97;5006182;28;1069;-74
2023/06/26 02:27:19;;;;;;;;;;;;;;;21.82;64.93;101163.22;5002307;28;1322;-73
2023/06/26 02:29:44;;;;;;;;;;;;;;;21.78;65.10;101169.88;5008739;28;1470;-73
2023/06/26 02:32:09;;;;;;;;;;;;;;;21.69;65.27;101162.09;5019742;28;1898;-73
2023/06/26 02:34:35;;;;;;;;;;;;;;;21.68;65.21;101171.03;5008745;28;1067;-74
2023/06/26 02:37:00;;;;;;;;;;;;;;;21.63;65.65;101168.16;5009700;28;1370;-73
2023/06/26 02:39:25;;;;;;;;;;;;;;;21.56;65.78;101169.88;5008732;28;1273;-72
2023/06/26 02:41:51;;;;;;;;;;;;;;;21.54;66.54;101169.28;5010422;28;1173;-73
2023/06/26 02:44:16;;;;;;;;;;;;;;;21.55;65.69;101170.91;5008082;28;1401;-73
2023/06/26 02:46:41;;;;;;;;;;;;;;;21.51;66.60;101174.94;5008617;28;1315;-73
2023/06/26 02:49:06;;;;;;;;;;;;;;;21.49;66.16;101171.66;5010106;28;1028;-72
2023/06/26 02:51:35;;;;;;;;;;;;;;;21.44;66.23;101174.03;5012308;28;1894;-72
2023/06/26 02:54:00;;;;;;;;;;;;;;;21.40;67.27;101178.06;5004362;28;1366;-73
2023/06/26 02:56:28;;;;;;;;;;;;;;;21.33;66.94;101177.16;5007451;28;1628;-72
2023/06/26 02:58:56;;;;;;;;;;;;;;;21.24;67.10;101178.28;5007985;28;1159;-72
2023/06/26 03:01:22;;;;;;;;;;;;;;;21.18;68.61;101175.38;5004632;28;1058;-73
2023/06/26 03:03:47;;;;;;;;;;;;;;;21.13;68.02;101188.31;5005878;28;1169;-71
2023/06/26 03:06:13;;;;;;;;;;;;;;;21.09;67.98;101192.31;5023588;28;1711;-73
2023/06/26 03:08:39;;;;;;;;;;;;;;;21.07;67.97;101199.59;5006686;28;1134;-72
2023/06/26 03:11:04;;;;;;;;;;;;;;;21.03;68.50;101198.31;4999328;28;1978;-72
2023/06/26 03:13:30;;;;;;;;;;;;;;;21.01;68.33;101195.06;5005047;28;1329;-72
2023/06/26 03:15:55;;;;;;;;;;;;;;;20.98;68.97;101189.31;5008118;28;1164;-72
2023/06/26 03:18:20;;;;;;;;;;;;;;;20.91;68.90;101194.53;5000384;28;1157;-73
2023/06/26 03:20:45;;;;;;;;;;;;;;;20.87;69.43;101193.25;5003532;28;1183;-73
2023/06/26 03:23:10;;;;;;;;;;;;;;;20.84;69.51;101204.19;5005593;28;1519;-73
2023/06/26 03:25:36;;;;;;;;;;;;;;;20.82;70.08;101195.66;5016390;28;1129;-73
2023/06/26 03:28:01;;;;;;;;;;;;;;;20.76;70.38;101207.72;5005021;28;1101;-72
2023/06/26 03:30:26;;;;;;;;;;;;;;;20.73;70.71;101199.38;5002602;28;1898;-73
2023/06/26 03:32:51;;;;;;;;;;;;;;;20.74;70.31;101203.63;5005478;28;1423;-72
2023/06/26 03:35:17;;;;;;;;;;;;;;;20.69;71.05;101197.06;5004145;28;1123;-73
2023/06/26 03:37:42;;;;;;;;;;;;;;;20.63;70.88;101203.06;5009531;28;1011;-73
2023/06/26 03:40:07;;;;;;;;;;;;;;;20.60;71.18;101198.19;5005596;28;1018;-72
2023/06/26 03:42:33;;;;;;;;;;;;;;;20.59;71.34;101191.28;5005249;28;1398;-73
2023/06/26 03:44:58;;;;;;;;;;;;;;;20.58;71.66;101188.81;5005559;28;956;-73
2023/06/26 03:47:23;;;;;;;;;;;;;;;20.55;71.92;101194.47;5002545;28;1151;-72
2023/06/26 03:49:49;;;;;;;;;;;;;;;20.49;71.54;101201.28;5009015;28;1105;-72
2023/06/26 03:52:14;;;;;;;;;;;;;;;20.47;72.50;101195.34;5003440;28;1967;-72
2023/06/26 03:54:39;;;;;;;;;;;;;;;20.47;72.71;101197.97;5004904;28;1235;-72
2023/06/26 03:57:04;;;;;;;;;;;;;;;20.47;72.79;101197.16;4997516;28;908;-73
2023/06/26 03:59:30;;;;;;;;;;;;;;;20.48;72.46;101204.91;5001977;28;1434;-72
2023/06/26 04:01:55;;;;;;;;;;;;;;;20.46;72.59;101209.53;5006983;28;1295;-72
2023/06/26 04:04:20;;;;;;;;;;;;;;;20.45;73.11;101214.94;5003214;28;1066;-72
2023/06/26 04:06:46;;;;;;;;;;;;;;;20.45;73.29;101221.03;5000956;28;1159;-72
2023/06/26 04:09:11;;;;;;;;;;;;;;;20.44;73.03;101224.69;5003503;28;1800;-72
2023/06/26 04:11:36;;;;;;;;;;;;;;;20.44;73.58;101229.94;5004289;28;1898;-72
2023/06/26 04:14:02;;;;;;;;;;;;;;;20.43;73.95;101234.41;5001670;28;2101;-72
2023/06/26 04:16:27;;;;;;;;;;;;;;;20.41;74.12;101233.78;5008389;28;1267;-73
2023/06/26 04:18:53;;;;;;;;;;;;;;;20.43;74.14;101228.31;5002723;28;1283;-70
2023/06/26 04:21:18;;;;;;;;;;;;;;;20.41;75.16;101240.81;5010081;28;1055;-71
2023/06/26 04:23:44;;;;;;;;;;;;;;;20.42;74.26;101242.50;5007433;28;1125;-72
2023/06/26 04:26:14;;;;;;;;;;;;;;;20.41;74.08;101252.22;5006957;28;1647;-72
2023/06/26 04:28:39;;;;;;;;;;;;;;;20.38;74.70;101244.66;5004765;28;1075;-71
2023/06/26 04:31:04;;;;;;;;;;;;;;;20.43;74.26;101259.94;5003596;28;1898;-71
2023/06/26 04:33:30;;;;;;;;;;;;;;;20.42;73.91;101247.75;5003829;28;1165;-72
2023/06/26 04:35:55;;;;;;;;;;;;;;;20.40;74.33;101255.00;5005228;28;1471;-71
2023/06/26 04:38:21;;;;;;;;;;;;;;;20.36;75.76;101259.00;5006383;28;1352;-71
2023/06/26 04:40:46;;;;;;;;;;;;;;;20.39;75.19;101256.00;5003045;28;1106;-72
2023/06/26 04:43:12;;;;;;;;;;;;;;;20.39;75.09;101258.63;5009248;28;1037;-71
2023/06/26 04:45:37;;;;;;;;;;;;;;;20.43;75.30;101254.66;5011733;28;1023;-71
2023/06/26 04:48:02;;;;;;;;;;;;;;;20.42;75.57;101250.41;5000137;28;1826;-72
2023/06/26 04:50:28;;;;;;;;;;;;;;;20.41;75.44;101261.91;5002014;28;1965;-72
2023/06/26 04:52:57;;;;;;;;;;;;;;;20.40;75.42;101260.28;4996605;28;1469;-72
2023/06/26 04:55:25;;;;;;;;;;;;;;;20.40;76.00;101261.09;5003511;28;1180;-72
2023/06/26 04:57:50;;;;;;;;;;;;;;;20.41;75.11;101267.19;5005780;28;1469;-71
2023/06/26 05:00:16;;;;;;;;;;;;;;;20.42;75.57;101269.66;5002769;28;1056;-72
2023/06/26 05:02:41;;;;;;;;;;;;;;;20.42;75.18;101268.84;5007469;28;1241;-73
2023/06/26 05:05:06;;;;;;;;;;;;;;;20.44;75.83;101285.28;5000306;28;1113;-72
2023/06/26 05:07:31;;;;;;;;;;;;;;;20.47;75.68;101277.03;5001516;28;1330;-73
2023/06/26 05:09:57;;;;;;;;;;;;;;;20.48;75.47;101278.69;5004272;28;987;-72
2023/06/26 05:12:22;;;;;;;;;;;;;;;20.47;75.77;101282.28;4999288;28;1894;-72
2023/06/26 05:14:47;;;;;;;;;;;;;;;20.45;76.07;101289.53;5003549;28;1331;-74
2023/06/26 05:17:15;;;;;;;;;;;;;;;20.44;75.72;101298.44;5001041;28;1169;-73
2023/06/26 05:19:40;;;;;;;;;;;;;;;20.43;75.87;101297.63;5002882;28;1612;-73
2023/06/26 05:22:07;;;;;;;;;;;;;;;20.44;76.07;101301.09;5000584;28;1280;-74
2023/06/26 05:24:33;;;;;;;;;;;;;;;20.53;75.96;101297.41;5005177;28;1001;-74
2023/06/26 05:26:59;;;;;;;;;;;;;;;20.35;76.08;101304.78;5005158;28;1089;-73
2023/06/26 05:29:24;;;;;;;;;;;;;;;20.31;75.70;101303.50;5005757;28;1071;-73
2023/06/26 05:31:51;;;;;;;;;;;;;;;20.28;75.31;101303.84;4996474;28;1890;-73
2023/06/26 05:34:16;;;;;;;;;;;;;;;20.25;75.25;101305.03;4995617;28;1095;-73
2023/06/26 05:36:43;;;;;;;;;;;;;;;20.26;75.47;101311.13;5005578;28;1114;-72
2023/06/26 05:39:08;;;;;;;;;;;;;;;20.35;75.49;101317.94;5001095;28;1104;-73
2023/06/26 05:41:33;;;;;;;;;;;;;;;20.34;75.08;101329.47;4997864;28;1318;-72
2023/06/26 05:43:58;;;;;;;;;;;;;;;20.38;74.80;101330.78;5005425;28;988;-73
2023/06/26 05:46:24;;;;;;;;;;;;;;;20.47;74.51;101335.00;5006780;28;1329;-73
2023/06/26 05:48:49;;;;;;;;;;;;;;;20.39;74.37;101342.94;5003415;28;1327;-71
2023/06/26 05:51:14;;;;;;;;;;;;;;;20.32;74.35;101349.94;4993990;28;1969;-74
2023/06/26 05:53:40;;;;;;;;;;;;;;;20.38;73.98;101341.31;4995406;28;1010;-73
2023/06/26 05:56:05;;;;;;;;;;;;;;;20.35;73.75;101349.56;5003762;28;1459;-72
2023/06/26 05:58:30;;;;;;;;;;;;;;;20.40;73.60;101355.13;4998435;28;1086;-72
2023/06/26 06:00:56;;;;;;;;;;;;;;;20.42;73.11;101346.06;5001031;28;1199;-73
2023/06/26 06:03:21;;;;;;;;;;;;;;;20.43;73.50;101355.59;5006947;28;1141;-71
2023/06/26 06:05:46;;;;;;;;;;;;;;;20.44;72.06;101356.41;5000665;28;1477;-72
2023/06/26 06:08:12;;;;;;;;;;;;;;;20.58;71.81;101368.84;5004488;28;1359;-72
2023/06/26 06:10:37;;;;;;;;;;;;;;;20.37;71.61;101371.31;5002336;28;1959;-72
2023/06/26 06:13:02;;;;;;;;;;;;;;;20.34;71.71;101371.63;5002593;28;1403;-73
2023/06/26 06:15:27;;;;;;;;;;;;;;;20.31;71.68;101366.75;5005267;28;1018;-72
2023/06/26 06:17:52;;;;;;;;;;;;;;;20.30;71.63;101378.25;5002273;28;1259;-72
2023/06/26 06:20:19;;;;;;;;;;;;;;;20.33;71.45;101376.09;4998433;28;1123;-74
2023/06/26 06:22:45;;;;;;;;;;;;;;;20.41;71.48;101378.69;5000701;28;1377;-72
2023/06/26 06:25:10;;;;;;;;;;;;;;;20.45;71.46;101387.03;5002475;28;1156;-72
2023/06/26 06:27:35;;;;;;;;;;;;;;;20.43;71.88;101386.41;5004306;28;1276;-72
2023/06/26 06:30:00;;;;;;;;;;;;;;;20.55;71.36;101390.28;5005607;28;1057;-72
2023/06/26 06:32:26;;;;;;;;;;;;;;;20.63;71.13;101399.94;5010735;28;1955;-72
2023/06/26 06:34:51;;;;;;;;;;;;;;;20.65;70.78;101396.16;4992946;28;1108;-73
2023/06/26 06:37:16;;;;;;;;;;;;;;;20.72;70.89;101400.72;5008052;28;1205;-72
2023/06/26 06:39:41;;;;;;;;;;;;;;;20.78;70.78;101400.00;5001135;28;980;-72
2023/06/26 06:42:07;;;;;;;;;;;;;;;20.76;70.62;101401.97;5003156;28;1562;-72
2023/06/26 06:44:32;;;;;;;;;;;;;;;20.81;70.58;101415.44;4999199;28;1232;-73
2023/06/26 06:46:57;;;;;;;;;;;;;;;20.77;69.79;101409.72;5004508;28;1102;-72
2023/06/26 06:49:22;;;;;;;;;;;;;;;20.77;69.89;101417.63;5002292;28;1479;-72
2023/06/26 06:51:47;;;;;;;;;;;;;;;20.89;70.03;101420.66;5003231;28;1898;-72
2023/06/26 06:54:15;;;;;;;;;;;;;;;20.96;69.85;101434.75;5004963;28;1112;-71
2023/06/26 06:56:40;;;;;;;;;;;;;;;21.02;69.08;101434.06;4999334;28;1483;-73
2023/06/26 06:59:06;;;;;;;;;;;;;;;20.81;68.86;101431.25;4997785;28;1305;-73
2023/06/26 07:01:31;;;;;;;;;;;;;;;20.79;69.49;101446.44;5004401;28;1426;-72
2023/06/26 07:03:57;;;;;;;;;;;;;;;20.84;69.70;101454.66;5006032;28;1469;-72
2023/06/26 07:06:22;;;;;;;;;;;;;;;20.89;70.02;101454.94;5010261;28;1447;-72
2023/06/26 07:08:47;;;;;;;;;;;;;;;20.93;70.31;101456.19;5000624;28;1342;-72
2023/06/26 07:11:13;;;;;;;;;;;;;;;21.01;69.50;101458.78;4999120;28;1967;-72
2023/06/26 07:13:38;;;;;;;;;;;;;;;20.94;70.12;101442.88;5003478;28;1247;-72
2023/06/26 07:16:03;;;;;;;;;;;;;;;21.07;69.49;101444.88;5011727;28;1157;-72
2023/06/26 07:18:28;;;;;;;;;;;;;;;20.98;70.40;101448.59;5000941;28;1283;-72
2023/06/26 07:20:54;;;;;;;;;;;;;;;21.05;70.28;101456.63;5004256;28;1401;-72
2023/06/26 07:23:19;;;;;;;;;;;;;;;21.09;70.21;101461.34;5002673;28;1098;-72
2023/06/26 07:25:44;;;;;;;;;;;;;;;21.13;70.35;101462.63;5009589;28;1160;-72
2023/06/26 07:28:10;;;;;;;;;;;;;;;21.29;69.43;101471.41;5005026;28;1108;-72
2023/06/26 07:30:35;;;;;;;;;;;;;;;21.04;69.77;101474.25;5004677;28;1977;-72
2023/06/26 07:33:01;;;;;;;;;;;;;;;21.00;69.99;101478.25;5000872;28;1054;-73
2023/06/26 07:35:27;;;;;;;;;;;;;;;20.89;69.67;101481.31;5008263;28;1062;-73
2023/06/26 07:37:52;;;;;;;;;;;;;;;20.99;69.89;101481.91;5003789;28;1332;-74
2023/06/26 07:40:18;;;;;;;;;;;;;;;21.06;70.80;101477.53;5011053;28;1513;-73
2023/06/26 07:42:43;;;;;;;;;;;;;;;21.15;70.17;101479.09;5004382;28;1110;-73
2023/06/26 07:45:09;;;;;;;;;;;;;;;21.26;69.68;101469.94;5005336;28;1211;-72
2023/06/26 07:47:35;;;;;;;;;;;;;;;21.31;70.00;101474.69;5006352;28;1361;-73
2023/06/26 07:50:01;;;;;;;;;;;;;;;21.33;69.72;101488.53;5000950;28;1091;-72
2023/06/26 07:52:26;;;;;;;;;;;;;;;21.41;69.98;101491.09;5003866;28;1972;-73
2023/06/26 07:54:51;;;;;;;;;;;;;;;21.56;69.91;101493.75;5009532;28;1099;-72
2023/06/26 07:57:17;;;;;;;;;;;;;;;21.48;68.83;101503.41;5005584;28;1631;-72
2023/06/26 07:59:42;;;;;;;;;;;;;;;21.37;69.45;101516.22;5011016;28;1565;-73
2023/06/26 08:02:07;;;;;;;;;;;;;;;21.35;69.15;101512.94;5003403;28;1411;-73
2023/06/26 08:04:33;;;;;;;;;;;;;;;21.51;68.76;101512.78;5007799;28;1157;-72
2023/06/26 08:06:59;;;;;;;;;;;;;;;21.43;68.87;101520.75;5006683;28;1381;-72
2023/06/26 08:09:25;;;;;;;;;;;;;;;21.49;69.03;101512.13;5005813;28;1314;-74
2023/06/26 08:11:51;;;;;;;;;;;;;;;21.52;67.37;101506.50;5008371;28;1894;-72
2023/06/26 08:14:16;;;;;;;;;;;;;;;21.41;67.17;101517.50;5003263;28;1279;-73
2023/06/26 08:16:42;;;;;;;;;;;;;;;21.40;67.41;101515.88;5006598;28;1577;-73
2023/06/26 08:19:07;;;;;;;;;;;;;;;21.39;66.62;101524.75;5002781;28;1192;-73
2023/06/26 08:21:32;;;;;;;;;;;;;;;21.32;67.29;101510.63;5017556;28;1192;-73
2023/06/26 08:23:57;;;;;;;;;;;;;;;21.34;66.92;101521.84;5004279;28;1043;-74
2023/06/26 08:26:23;;;;;;;;;;;;;;;21.40;67.67;101523.78;5005719;28;1436;-73
2023/06/26 08:28:48;;;;;;;;;;;;;;;21.54;67.22;101528.25;5005840;28;1063;-73
2023/06/26 08:31:13;;;;;;;;;;;;;;;21.55;66.18;101535.16;5003786;28;1898;-73
2023/06/26 08:33:38;;;;;;;;;;;;;;;21.66;66.06;101526.81;5005183;28;1014;-73
2023/06/26 08:36:04;;;;;;;;;;;;;;;21.71;65.76;101529.72;5008043;28;1478;-73
2023/06/26 08:38:29;;;;;;;;;;;;;;;21.81;63.70;101528.66;5005226;28;1322;-73
2023/06/26 08:40:54;;;;;;;;;;;;;;;21.82;63.16;101525.81;5004451;28;1192;-72
2023/06/26 08:43:21;;;;;;;;;;;;;;;21.98;63.04;101530.09;4998621;28;1275;-72
2023/06/26 08:45:51;;;;;;;;;;;;;;;22.09;60.69;101540.22;5005154;28;1350;-72
2023/06/26 08:48:16;;;;;;;;;;;;;;;21.88;61.80;101534.84;5000397;28;1173;-73
2023/06/26 08:50:43;;;;;;;;;;;;;;;21.86;60.60;101542.13;5007344;28;1898;-73
2023/06/26 08:53:27;;;;;;;;;;;;;;;21.81;61.28;101550.59;5002511;28;1426;-73
2023/06/26 08:55:53;;;;;;;;;;;;;;;21.89;60.79;101545.22;5007701;28;1565;-74
2023/06/26 08:58:18;;;;;;;;;;;;;;;22.05;60.41;101546.03;4998171;28;1148;-73
2023/06/26 09:00:44;;;;;;;;;;;;;;;22.07;61.30;101544.03;5000626;28;1192;-74
2023/06/26 09:03:09;;;;;;;;;;;;;;;22.23;58.42;101555.25;5006203;28;1191;-74
2023/06/26 09:05:35;;;;;;;;;;;;;;;22.20;56.47;101555.63;4998653;28;1057;-72
2023/06/26 09:08:00;;;;;;;;;;;;;;;22.14;56.08;101571.41;5003554;28;1070;-73
2023/06/26 09:10:25;;;;;;;;;;;;;;;22.17;56.61;101553.34;5005739;28;1930;-74
2023/06/26 09:12:54;;;;;;;;;;;;;;;22.19;57.23;101559.28;5005420;28;1272;-73
2023/06/26 09:15:20;;;;;;;;;;;;;;;22.32;57.14;101563.09;5006878;28;1468;-73
2023/06/26 09:17:45;;;;;;;;;;;;;;;22.29;56.40;101568.72;5007593;28;1082;-73
2023/06/26 09:20:10;;;;;;;;;;;;;;;22.32;56.85;101563.91;4996459;28;1155;-73
2023/06/26 09:22:36;;;;;;;;;;;;;;;22.42;54.64;101563.59;5004403;28;1167;-73
2023/06/26 09:25:02;;;;;;;;;;;;;;;22.21;56.35;101578.41;5003934;28;1290;-73
2023/06/26 09:27:27;;;;;;;;;;;;;;;22.23;55.83;101575.56;5009186;28;1038;-74
2023/06/26 09:29:52;;;;;;;;;;;;;;;22.27;55.37;101588.22;4996745;28;1146;-73
2023/06/26 09:32:18;;;;;;;;;;;;;;;22.15;55.27;101581.78;4996550;28;1973;-72
2023/06/26 09:34:46;;;;;;;;;;;;;;;22.22;55.20;101584.50;5003522;28;1347;-73
2023/06/26 09:37:11;;;;;;;;;;;;;;;22.12;55.89;101583.94;5004257;28;1140;-73
2023/06/26 09:39:37;;;;;;;;;;;;;;;22.11;55.21;101592.88;5004068;28;1106;-74
2023/06/26 09:42:02;;;;;;;;;;;;;;;22.02;54.99;101581.53;5002468;28;1208;-72
2023/06/26 09:44:30;;;;;;;;;;;;;;;22.03;55.95;101595.59;5006078;28;1558;-73
2023/06/26 09:46:55;;;;;;;;;;;;;;;22.10;55.35;101600.00;4999134;28;1420;-73
2023/06/26 09:49:20;;;;;;;;;;;;;;;22.04;56.21;101598.06;5001458;28;1074;-72
2023/06/26 09:51:46;;;;;;;;;;;;;;;22.09;55.76;101606.25;5003565;28;1898;-74
2023/06/26 09:54:11;;;;;;;;;;;;;;;22.09;56.60;101616.00;5001664;28;1743;-73
2023/06/26 09:56:36;;;;;;;;;;;;;;;22.05;56.46;101615.53;5010507;28;1403;-73
2023/06/26 09:59:05;;;;;;;;;;;;;;;22.09;56.62;101616.81;5006179;28;1189;-73
2023/06/26 10:01:31;;;;;;;;;;;;;;;22.12;56.52;101616.47;5001386;28;1393;-73
2023/06/26 10:03:57;;;;;;;;;;;;;;;22.27;56.20;101619.13;5004000;28;1319;-73
2023/06/26 10:06:26;;;;;;;;;;;;;;;22.18;56.26;101621.03;5006216;28;1421;-73
2023/06/26 10:08:52;;;;;;;;;;;;;;;22.18;56.00;101631.59;5006211;28;1138;-73
2023/06/26 10:11:20;;;;;;;;;;;;;;;21.96;55.71;101624.53;4999757;28;1967;-72
2023/06/26 10:13:48;;;;;;;;;;;;;;;21.90;55.84;101625.25;5005784;28;1295;-73
2023/06/26 10:16:17;;;;;;;;;;;;;;;21.93;56.48;101630.19;5011372;28;1137;-73
2023/06/26 10:18:43;;;;;;;;;;;;;;;22.00;56.63;101628.47;5003514;28;1076;-72
2023/06/26 10:21:09;;;;;;;;;;;;;;;22.04;56.03;101634.22;5004220;28;1006;-73
2023/06/26 10:23:36;;;;;;;;;;;;;;;21.97;56.42;101634.94;5002465;28;1326;-71
2023/06/26 10:26:01;;;;;;;;;;;;;;;22.11;55.04;101635.97;5009471;28;1010;-72
2023/06/26 10:28:28;;;;;;;;;;;;;;;21.99;57.06;101643.50;5006479;28;1194;-72
2023/06/26 10:30:54;;;;;;;;;;;;;;;22.14;55.16;101640.91;5005918;28;1978;-72
2023/06/26 10:33:20;;;;;;;;;;;;;;;22.09;56.36;101640.59;5000491;28;1323;-72
2023/06/26 10:35:46;;;;;;;;;;;;;;;22.17;55.69;101651.09;5008711;28;1083;-73
2023/06/26 10:38:11;;;;;;;;;;;;;;;22.03;56.44;101636.03;5008237;28;1113;-73
2023/06/26 10:40:40;;;;;;;;;;;;;;;22.19;56.33;101635.91;5006115;28;1268;-73
2023/06/26 10:43:09;;;;;;;;;;;;;;;22.50;54.84;101634.88;5003617;28;1429;-73
2023/06/26 10:45:35;;;;;;;;;;;;;;;22.56;55.38;101639.44;5004189;28;1094;-73
2023/06/26 10:48:00;;;;;;;;;;;;;;;22.59;54.40;101649.63;5005180;28;1335;-72
2023/06/26 10:50:35;;;;;;;;;;;;;;;22.53;53.01;101660.94;5009056;28;1901;-74
2023/06/26 10:53:10;;;;;;;;;;;;;;;22.25;53.63;101658.97;5006105;28;1394;-73
2023/06/26 10:55:36;;;;;;;;;;;;;;;22.26;54.63;101660.59;5009441;28;1518;-73
2023/06/26 10:58:02;;;;;;;;;;;;;;;22.41;54.46;101647.38;5009192;28;1247;-72
2023/06/26 11:00:27;;;;;;;;;;;;;;;22.61;53.84;101647.63;5010150;28;1064;-73
2023/06/26 11:02:53;;;;;;;;;;;;;;;22.82;53.94;101654.78;5001266;28;998;-73
2023/06/26 11:05:29;;;;;;;;;;;;;;;22.90;53.00;101656.56;5008546;28;1342;-72
2023/06/26 11:08:04;;;;;;;;;;;;;;;23.03;53.39;101667.28;5009037;28;1071;-72
2023/06/26 11:10:29;;;;;;;;;;;;;;;23.21;50.96;101665.03;5009544;28;1973;-75
2023/06/26 11:12:57;;;;;;;;;;;;;;;22.90;49.38;101665.31;5009495;28;975;-73
2023/06/26 11:15:24;;;;;;;;;;;;;;;22.73;48.85;101669.97;5002492;28;1569;-72
2023/06/26 11:17:49;;;;;;;;;;;;;;;22.74;50.22;101658.38;5011494;28;1435;-72
2023/06/26 11:20:16;;;;;;;;;;;;;;;22.82;50.61;101659.25;5005061;28;1125;-74
2023/06/26 11:22:41;;;;;;;;;;;;;;;22.96;51.08;101671.69;5014686;28;1098;-73
2023/06/26 11:25:07;;;;;;;;;;;;;;;23.10;49.53;101673.47;5010065;28;1377;-72
2023/06/26 11:27:39;;;;;;;;;;;;;;;23.03;51.35;101683.97;5010149;28;1154;-74
2023/06/26 11:30:05;;;;;;;;;;;;;;;23.04;49.40;101685.63;5006900;28;1235;-72
2023/06/26 11:32:32;;;;;;;;;;;;;;;22.94;49.65;101686.91;5005321;28;1894;-72
2023/06/26 11:34:57;;;;;;;;;;;;;;;22.92;49.38;101707.44;5008404;28;1165;-74
2023/06/26 11:37:23;;;;;;;;;;;;;;;22.96;50.66;101692.84;5011557;28;1205;-72
2023/06/26 11:39:48;;;;;;;;;;;;;;;23.16;50.61;101699.19;5005706;28;1146;-74
2023/06/26 11:42:13;;;;;;;;;;;;;;;23.27;49.93;101717.22;5005224;28;1331;-73
2023/06/26 11:44:45;;;;;;;;;;;;;;;23.15;50.23;101702.84;5008551;28;1098;-72
2023/06/26 11:47:20;;;;;;;;;;;;;;;22.99;50.27;101713.63;5005740;28;1124;-74
2023/06/26 11:49:46;;;;;;;;;;;;;;;22.94;50.37;101713.38;5006558;28;1102;-72
2023/06/26 11:52:11;;;;;;;;;;;;;;;22.86;49.87;101718.75;5002619;28;1952;-73
2023/06/26 11:54:37;;;;;;;;;;;;;;;22.75;50.17;101728.78;5009807;28;1278;-74
2023/06/26 11:57:02;;;;;;;;;;;;;;;22.71;50.96;101726.66;5006680;28;1470;-74
2023/06/26 11:59:35;;;;;;;;;;;;;;;22.87;51.18;101730.97;5001346;28;1014;-72
2023/06/26 12:02:04;;;;;;;;;;;;;;;23.13;50.68;101720.75;5010648;28;1338;-72
2023/06/26 12:04:30;;;;;;;;;;;;;;;23.26;49.81;101742.06;5005819;28;1136;-72
2023/06/26 12:06:58;;;;;;;;;;;;;;;22.99;49.42;101742.75;4998418;28;1345;-72
2023/06/26 12:09:24;;;;;;;;;;;;;;;22.90;49.64;101746.50;5002103;28;1089;-73
2023/06/26 12:11:52;;;;;;;;;;;;;;;22.86;50.06;101739.91;5004284;28;1886;-73
2023/06/26 12:14:19;;;;;;;;;;;;;;;22.77;50.52;101747.94;5008633;28;1243;-73
2023/06/26 12:16:44;;;;;;;;;;;;;;;22.76;49.90;101751.56;5002097;28;1097;-72
2023/06/26 12:19:10;;;;;;;;;;;;;;;22.78;50.21;101751.41;5009542;28;1138;-73
2023/06/26 12:21:39;;;;;;;;;;;;;;;22.94;50.82;101742.47;5004919;28;1467;-73
2023/06/26 12:24:06;;;;;;;;;;;;;;;23.12;51.08;101750.84;5008962;28;1385;-71
2023/06/26 12:26:33;;;;;;;;;;;;;;;23.21;48.74;101759.50;5010549;28;1006;-72
2023/06/26 12:29:17;;;;;;;;;;;;;;;23.43;47.61;101757.72;5007683;28;1173;-72
2023/06/26 12:31:44;;;;;;;;;;;;;;;23.12;48.97;101756.16;5007588;28;1950;-72
2023/06/26 12:34:11;;;;;;;;;;;;;;;23.19;49.67;101751.75;5008339;28;1358;-74
2023/06/26 12:36:40;;;;;;;;;;;;;;;23.25;49.03;101756.31;5002705;28;1091;-72
2023/06/26 12:39:05;;;;;;;;;;;;;;;23.30;48.95;101756.56;5009725;28;1093;-72
2023/06/26 12:41:30;;;;;;;;;;;;;;;23.22;46.28;101756.66;5002960;28;1206;-72